Time;durP1;ratioP1;P1;durP2;ratioP2;P2;SDS_P1;SDS_P2;PMS_P1;PMS_P2;Temp;Humidity;BMP_temperature;BMP_pressure;BME280_temperature;BME280_humidity;BME280_pressure;Samples;Min_cycle;Max_cycle;Signal;HPM_P1;HPM_P2
2021/10/26 00:01:11;;;;;;;2.90;2.60;;;5.70;99.90;;;;;;7363406;19;20399;-78
2021/10/26 00:03:37;;;;;;;3.33;2.60;;;5.70;99.90;;;;;;7366622;19;20586;-77
2021/10/26 00:06:03;;;;;;;2.42;2.17;;;5.70;99.90;;;;;;7363036;19;20369;-78
2021/10/26 00:08:28;;;;;;;2.63;2.43;;;5.70;99.90;;;;;;7370673;19;20301;-78
2021/10/26 00:10:54;;;;;;;3.80;2.80;;;5.60;99.90;;;;;;7364486;19;20404;-78
2021/10/26 00:13:20;;;;;;;4.55;2.88;;;5.60;99.90;;;;;;7368494;19;20324;-78
2021/10/26 00:15:46;;;;;;;2.78;2.58;;;5.60;99.90;;;;;;7362271;19;20293;-79
2021/10/26 00:18:12;;;;;;;2.85;2.63;;;5.50;99.90;;;;;;7367669;19;20320;-79
2021/10/26 00:20:38;;;;;;;2.93;2.30;;;5.40;99.90;;;;;;7365993;19;21129;-78
2021/10/26 00:23:03;;;;;;;4.80;2.63;;;5.40;99.90;;;;;;7367904;19;20297;-78
2021/10/26 00:25:29;;;;;;;2.73;2.47;;;5.40;99.90;;;;;;7366725;19;20334;-78
2021/10/26 00:27:55;;;;;;;2.92;2.30;;;5.40;99.90;;;;;;7375007;19;20323;-78
2021/10/26 00:30:23;;;;;;;3.55;3.20;;;5.40;99.90;;;;;;7372109;19;20329;-79
2021/10/26 00:32:48;;;;;;;3.47;3.10;;;5.50;99.90;;;;;;7371820;19;21268;-79
2021/10/26 00:35:15;;;;;;;2.90;2.60;;;5.50;99.90;;;;;;7371458;19;20324;-78
2021/10/26 00:37:41;;;;;;;3.63;2.97;;;5.50;99.90;;;;;;7372460;19;20347;-78
2021/10/26 00:40:07;;;;;;;4.35;2.78;;;5.50;99.90;;;;;;7369268;19;20770;-78
2021/10/26 00:42:33;;;;;;;3.65;3.35;;;5.60;99.90;;;;;;7368040;19;20323;-78
2021/10/26 00:45:01;;;;;;;3.03;2.75;;;5.70;99.90;;;;;;7370996;19;20333;-78
2021/10/26 00:47:26;;;;;;;4.43;3.08;;;5.70;99.90;;;;;;7370514;19;20967;-78
2021/10/26 00:49:52;;;;;;;3.58;3.28;;;5.70;99.90;;;;;;7373365;19;20351;-79
2021/10/26 00:52:18;;;;;;;3.07;2.60;;;5.70;99.90;;;;;;7370587;19;20910;-78
2021/10/26 00:54:48;;;;;;;3.37;3.07;;;5.80;99.90;;;;;;7377450;19;20324;-78
2021/10/26 00:57:15;;;;;;;3.28;2.95;;;5.90;99.90;;;;;;7377096;19;20675;-78
2021/10/26 00:59:41;;;;;;;3.78;3.08;;;5.90;99.90;;;;;;7374393;19;20347;-78
2021/10/26 01:02:07;;;;;;;3.20;2.90;;;5.90;99.90;;;;;;7365478;19;20320;-78
2021/10/26 01:04:33;;;;;;;3.10;2.80;;;6.00;99.90;;;;;;7373331;19;20350;-78
2021/10/26 01:06:58;;;;;;;2.87;2.47;;;6.00;99.90;;;;;;7367768;19;21038;-78
2021/10/26 01:09:27;;;;;;;2.58;2.38;;;6.00;99.90;;;;;;7375839;19;20305;-77
2021/10/26 01:11:52;;;;;;;3.03;2.80;;;6.00;99.90;;;;;;7368542;19;20361;-78
2021/10/26 01:14:18;;;;;;;4.00;3.03;;;6.00;99.90;;;;;;7374295;19;20791;-78
2021/10/26 01:16:44;;;;;;;3.28;2.55;;;6.00;99.90;;;;;;7367826;19;20321;-78
2021/10/26 01:19:13;;;;;;;2.60;2.40;;;6.00;99.90;;;;;;7376019;19;20389;-78
2021/10/26 01:21:41;;;;;;;2.70;2.30;;;6.00;99.90;;;;;;7371599;19;20309;-78
2021/10/26 01:24:06;;;;;;;2.42;2.22;;;6.10;99.90;;;;;;7375028;19;20301;-78
2021/10/26 01:26:33;;;;;;;2.55;2.35;;;6.00;99.90;;;;;;7371434;19;20353;-78
2021/10/26 01:28:59;;;;;;;2.72;2.53;;;6.10;99.90;;;;;;7377198;19;20345;-80
2021/10/26 01:31:26;;;;;;;2.63;2.42;;;6.00;99.90;;;;;;7368578;19;20340;-78
2021/10/26 01:34:00;;;;;;;4.47;2.50;;;6.10;99.90;;;;;;7272207;19;2004419;-78
2021/10/26 01:36:36;;;;;;;3.40;2.90;;;6.10;99.90;;;;;;7266197;19;2004911;-78
2021/10/26 01:39:02;;;;;;;3.40;3.10;;;6.10;99.90;;;;;;7370638;19;20309;-78
2021/10/26 01:41:31;;;;;;;2.45;2.25;;;6.10;99.90;;;;;;7366601;19;20345;-78
2021/10/26 01:43:57;;;;;;;2.80;2.60;;;6.10;99.90;;;;;;7371248;19;20394;-78
2021/10/26 01:46:23;;;;;;;2.72;2.50;;;6.10;99.90;;;;;;7362997;19;20923;-78
2021/10/26 01:48:49;;;;;;;2.83;2.45;;;6.10;99.90;;;;;;7372923;19;20372;-78
2021/10/26 01:51:15;;;;;;;3.55;3.25;;;6.00;99.90;;;;;;7367396;19;20830;-78
2021/10/26 01:53:41;;;;;;;3.03;2.47;;;6.10;99.90;;;;;;7373782;19;20348;-78
2021/10/26 01:56:10;;;;;;;3.67;3.08;;;6.10;99.90;;;;;;7367028;19;20308;-78
2021/10/26 01:59:00;;;;;;;2.10;2.00;;;6.10;99.90;;;;;;7370749;19;20315;-78
2021/10/26 02:01:52;;;;;;;3.38;2.60;;;6.10;99.90;;;;;;7263767;19;2005021;-78
2021/10/26 02:04:32;;;;;;;3.08;2.42;;;6.20;99.90;;;;;;7271165;19;2004888;-79
2021/10/26 02:06:57;;;;;;;2.97;2.67;;;6.20;99.90;;;;;;7369081;19;20362;-78
2021/10/26 02:09:25;;;;;;;2.70;2.50;;;6.20;99.90;;;;;;7372935;19;20317;-78
2021/10/26 02:11:50;;;;;;;2.33;2.13;;;6.30;99.90;;;;;;7368337;19;20686;-78
2021/10/26 02:14:17;;;;;;;2.60;2.40;;;6.20;99.90;;;;;;7373089;19;20325;-78
2021/10/26 02:16:43;;;;;;;3.58;2.72;;;6.20;99.90;;;;;;7365722;19;21337;-78
2021/10/26 02:19:09;;;;;;;2.60;2.40;;;6.20;99.90;;;;;;7372362;19;20308;-78
2021/10/26 02:21:35;;;;;;;2.75;2.55;;;6.20;99.90;;;;;;7366817;19;20319;-78
2021/10/26 02:24:01;;;;;;;2.37;2.13;;;6.30;99.90;;;;;;7371671;19;20304;-78
2021/10/26 02:26:29;;;;;;;2.63;2.30;;;6.30;99.90;;;;;;7365637;19;20328;-78
2021/10/26 02:28:55;;;;;;;4.23;2.33;;;6.40;99.90;;;;;;7374439;19;20353;-78
2021/10/26 02:31:21;;;;;;;2.33;2.13;;;6.30;99.90;;;;;;7365178;19;20320;-79
2021/10/26 02:33:48;;;;;;;2.60;2.40;;;6.30;99.90;;;;;;7371879;19;20300;-78
2021/10/26 02:36:14;;;;;;;2.67;2.47;;;6.30;99.90;;;;;;7366517;19;20344;-78
2021/10/26 02:38:39;;;;;;;2.10;2.00;;;6.30;99.90;;;;;;7372200;19;20316;-78
2021/10/26 02:41:05;;;;;;;3.30;2.63;;;6.20;99.90;;;;;;7364743;19;20319;-78
2021/10/26 02:43:31;;;;;;;2.88;2.67;;;6.20;99.90;;;;;;7297637;19;20392;-78
2021/10/26 02:45:58;;;;;;;2.45;2.25;;;6.10;99.90;;;;;;7268048;19;20301;-78
2021/10/26 02:48:23;;;;;;;3.15;2.85;;;6.00;99.90;;;;;;7251983;19;20320;-78
2021/10/26 02:50:50;;;;;;;4.88;2.83;;;6.10;99.90;;;;;;7329407;19;20332;-78
2021/10/26 02:53:15;;;;;;;2.53;2.33;;;6.10;99.90;;;;;;7370051;19;20319;-78
2021/10/26 02:55:41;;;;;;;2.90;2.60;;;6.20;99.90;;;;;;7364132;19;20348;-78
2021/10/26 02:58:06;;;;;;;2.72;2.40;;;6.20;99.90;;;;;;7372210;19;20312;-78
2021/10/26 03:00:32;;;;;;;4.90;2.93;;;6.20;99.90;;;;;;7364722;19;20364;-78
2021/10/26 03:03:04;;;;;;;2.30;2.20;;;6.20;99.90;;;;;;7371533;19;20411;-78
2021/10/26 03:05:30;;;;;;;2.65;2.38;;;6.20;99.90;;;;;;7366556;19;21107;-78
2021/10/26 03:07:55;;;;;;;3.10;2.80;;;6.20;99.90;;;;;;7369096;19;20985;-78
2021/10/26 03:10:28;;;;;;;3.30;3.00;;;6.20;99.90;;;;;;7363885;19;20330;-79
2021/10/26 03:12:53;;;;;;;2.88;2.67;;;6.20;99.90;;;;;;7356726;19;20321;-78
2021/10/26 03:15:20;;;;;;;2.95;2.63;;;6.20;99.90;;;;;;7367659;19;20443;-78
2021/10/26 03:17:45;;;;;;;2.47;2.28;;;6.20;99.90;;;;;;7367053;19;21245;-78
2021/10/26 03:20:18;;;;;;;2.85;2.63;;;6.20;99.90;;;;;;7366447;19;20827;-78
2021/10/26 03:22:44;;;;;;;2.50;2.30;;;6.20;99.90;;;;;;7369876;19;20310;-77
2021/10/26 03:25:10;;;;;;;2.50;2.20;;;6.10;99.90;;;;;;7368800;19;20320;-78
2021/10/26 03:27:36;;;;;;;3.33;3.03;;;6.10;99.90;;;;;;7372397;19;20359;-77
2021/10/26 03:30:06;;;;;;;4.15;3.30;;;6.10;99.90;;;;;;7377198;19;20308;-77
2021/10/26 03:32:32;;;;;;;3.05;2.80;;;6.10;99.90;;;;;;7376105;19;20435;-77
2021/10/26 03:35:16;;;;;;;3.03;2.55;;;6.10;99.90;;;;;;7372657;19;20320;-77
2021/10/26 03:37:42;;;;;;;3.65;2.58;;;6.10;99.90;;;;;;7376717;19;20379;-78
2021/10/26 03:40:10;;;;;;;3.72;3.33;;;6.10;99.90;;;;;;7378673;19;20320;-77
2021/10/26 03:42:37;;;;;;;2.88;2.65;;;6.00;99.90;;;;;;7374658;19;20384;-78
2021/10/26 03:45:05;;;;;;;2.73;2.53;;;6.00;99.90;;;;;;7373427;19;20672;-78
2021/10/26 03:47:30;;;;;;;2.65;2.20;;;6.10;99.90;;;;;;7376415;19;20969;-77
2021/10/26 03:49:56;;;;;;;2.87;2.67;;;6.10;99.90;;;;;;7379741;19;20349;-78
2021/10/26 03:52:23;;;;;;;2.95;2.65;;;6.10;99.90;;;;;;7381693;19;20400;-78
2021/10/26 03:54:56;;;;;;;3.30;2.67;;;6.10;99.90;;;;;;7365474;19;20731;-77
2021/10/26 03:57:24;;;;;;;2.65;2.45;;;6.10;99.90;;;;;;7285130;19;2007370;-77
2021/10/26 03:59:51;;;;;;;2.60;2.40;;;6.10;99.90;;;;;;7388147;19;20919;-78
2021/10/26 04:03:04;;;;;;;2.58;2.38;;;6.10;99.90;;;;;;7391598;19;20308;-78
2021/10/26 04:05:14;;;;;;;3.37;3.07;;;6.10;99.90;;;;;;7390101;19;20387;-78
2021/10/26 04:07:51;;;;;;;2.97;2.73;;;6.10;99.90;;;;;;7391362;19;20336;-77
2021/10/26 04:17:15;;;;;;;2.65;2.45;;;6.00;99.90;;;;;;7371035;19;20332;-80
2021/10/26 04:19:41;;;;;;;3.80;2.92;;;6.00;99.90;;;;;;7419546;19;20416;-77
2021/10/26 04:22:08;;;;;;;3.60;2.30;;;6.00;99.90;;;;;;7416834;19;20591;-78
2021/10/26 04:24:34;;;;;;;3.38;3.05;;;6.10;99.90;;;;;;7418703;19;20349;-79
2021/10/26 04:27:00;;;;;;;2.78;2.58;;;6.10;99.90;;;;;;7420498;19;20360;-80
2021/10/26 04:29:27;;;;;;;2.80;2.58;;;6.10;99.90;;;;;;7402604;19;20344;-78
2021/10/26 04:31:53;;;;;;;2.35;2.15;;;6.20;99.90;;;;;;7420662;19;20418;-78
2021/10/26 04:34:23;;;;;;;4.35;3.22;;;6.20;99.90;;;;;;7420034;19;20333;-78
2021/10/26 04:36:48;;;;;;;3.73;3.07;;;6.20;99.90;;;;;;7418270;19;20386;-78
2021/10/26 04:39:14;;;;;;;3.13;2.78;;;6.30;99.90;;;;;;7422456;19;20385;-77
2021/10/26 04:41:40;;;;;;;3.10;2.80;;;6.30;99.90;;;;;;7420670;19;20376;-76
2021/10/26 04:44:05;;;;;;;5.03;3.60;;;6.50;99.90;;;;;;7424780;19;20312;-77
2021/10/26 04:46:35;;;;;;;2.97;2.70;;;6.40;99.90;;;;;;7420893;19;20361;-79
2021/10/26 04:49:01;;;;;;;3.83;3.50;;;6.50;99.90;;;;;;7421563;19;20337;-78
2021/10/26 04:51:28;;;;;;;2.88;2.58;;;6.50;99.90;;;;;;7421155;19;20289;-78
2021/10/26 04:53:54;;;;;;;3.90;2.60;;;6.60;99.90;;;;;;7423941;19;20333;-78
2021/10/26 04:56:19;;;;;;;2.45;2.20;;;6.60;99.90;;;;;;7419171;19;20333;-78
2021/10/26 04:59:05;;;;;;;3.92;2.70;;;6.60;99.90;;;;;;7423037;19;20348;-77
2021/10/26 05:01:31;;;;;;;3.17;2.88;;;6.80;99.90;;;;;;7417924;19;20375;-77
2021/10/26 05:03:57;;;;;;;2.60;2.40;;;6.80;99.90;;;;;;7424050;19;20333;-78
2021/10/26 05:06:22;;;;;;;2.90;2.70;;;6.80;99.90;;;;;;7419010;19;20313;-78
2021/10/26 05:08:52;;;;;;;3.60;3.13;;;6.80;99.90;;;;;;7422643;19;20352;-79
2021/10/26 05:11:20;;;;;;;4.53;2.50;;;6.90;99.90;;;;;;7419504;19;20335;-78
2021/10/26 05:13:46;;;;;;;3.30;3.00;;;6.80;99.90;;;;;;7421832;19;20357;-78
2021/10/26 05:16:43;;;;;;;3.55;2.90;;;6.80;99.90;;;;;;7316600;19;2004410;-78
2021/10/26 05:19:29;;;;;;;6.20;3.50;;;6.80;99.90;;;;;;7318636;19;2004208;-78
2021/10/26 05:22:19;;;;;;;4.00;3.23;;;6.80;99.90;;;;;;7418072;19;20335;-78
2021/10/26 05:25:04;;;;;;;5.85;3.95;;;6.80;99.90;;;;;;7420880;19;20297;-77
2021/10/26 05:27:45;;;;;;;3.28;3.03;;;6.90;99.90;;;;;;7316359;19;2005181;-78
2021/10/26 05:30:11;;;;;;;4.03;3.65;;;6.90;99.90;;;;;;7420333;19;20320;-78
2021/10/26 05:32:40;;;;;;;2.88;2.67;;;6.90;99.90;;;;;;7419216;19;20330;-78
2021/10/26 05:35:07;;;;;;;3.80;2.70;;;6.90;99.90;;;;;;7419653;19;20332;-78
2021/10/26 05:37:32;;;;;;;3.70;3.33;;;6.90;99.90;;;;;;7417602;19;20380;-78
2021/10/26 05:39:58;;;;;;;5.40;3.88;;;6.90;99.90;;;;;;7420765;19;20376;-78
2021/10/26 05:42:24;;;;;;;3.20;2.90;;;6.90;99.90;;;;;;7418999;19;20316;-77
2021/10/26 05:44:50;;;;;;;3.50;3.20;;;6.90;99.90;;;;;;7420372;19;20403;-78
2021/10/26 05:47:16;;;;;;;3.53;2.97;;;6.90;99.90;;;;;;7417565;19;20333;-78
2021/10/26 05:49:42;;;;;;;2.80;2.53;;;6.90;99.90;;;;;;7417452;19;20297;-78
2021/10/26 05:52:08;;;;;;;3.17;2.80;;;7.00;99.90;;;;;;7415786;19;20329;-78
2021/10/26 05:54:34;;;;;;;4.80;3.80;;;7.00;99.90;;;;;;7419746;19;20340;-78
2021/10/26 05:57:00;;;;;;;4.47;4.07;;;7.00;99.90;;;;;;7420456;19;20337;-79
2021/10/26 05:59:25;;;;;;;5.93;4.53;;;7.00;99.90;;;;;;7421439;19;20365;-78
2021/10/26 06:01:51;;;;;;;4.70;4.30;;;7.00;99.90;;;;;;7419625;19;20351;-78
2021/10/26 06:04:18;;;;;;;3.38;3.00;;;6.90;99.90;;;;;;7420150;19;20316;-79
2021/10/26 06:06:44;;;;;;;5.07;3.80;;;7.00;99.90;;;;;;7415944;19;20321;-78
2021/10/26 06:09:10;;;;;;;4.37;3.60;;;7.00;99.90;;;;;;7421801;19;20300;-78
2021/10/26 06:11:36;;;;;;;3.85;3.47;;;7.00;99.90;;;;;;7415955;19;20406;-78
2021/10/26 06:14:03;;;;;;;3.53;3.22;;;7.00;99.90;;;;;;7418072;19;20324;-79
2021/10/26 06:16:30;;;;;;;3.88;3.47;;;7.10;99.90;;;;;;7417768;19;20320;-78
2021/10/26 06:18:56;;;;;;;4.20;3.80;;;7.10;99.90;;;;;;7418978;19;20433;-78
2021/10/26 06:21:22;;;;;;;4.07;3.38;;;7.20;99.90;;;;;;7415486;19;20332;-78
2021/10/26 06:23:48;;;;;;;3.20;2.90;;;7.20;99.90;;;;;;7419294;19;20305;-79
2021/10/26 06:26:14;;;;;;;5.47;3.43;;;7.20;99.90;;;;;;7417429;19;20365;-78
2021/10/26 06:28:43;;;;;;;3.22;2.92;;;7.30;99.90;;;;;;7420143;19;20337;-77
2021/10/26 06:31:09;;;;;;;4.55;3.20;;;7.30;99.90;;;;;;7414930;19;20329;-79
2021/10/26 06:33:42;;;;;;;4.30;3.42;;;7.30;99.90;;;;;;7418954;19;20320;-78
2021/10/26 06:36:19;;;;;;;3.50;3.20;;;7.40;99.90;;;;;;7414129;19;20323;-78
2021/10/26 06:38:46;;;;;;;4.43;3.60;;;7.40;99.90;;;;;;7419406;19;20317;-78
2021/10/26 06:41:12;;;;;;;3.97;3.13;;;7.50;99.90;;;;;;7416477;19;20300;-78
2021/10/26 06:43:41;;;;;;;3.05;2.85;;;7.50;99.90;;;;;;7418741;19;20340;-78
2021/10/26 06:46:25;;;;;;;3.00;2.70;;;7.60;99.90;;;;;;7315993;19;2004393;-78
2021/10/26 06:49:27;;;;;;;2.90;2.70;;;7.60;99.90;;;;;;7315457;19;2003994;-79
2021/10/26 06:52:12;;;;;;;2.83;2.60;;;7.70;99.90;;;;;;7418036;19;20297;-78
2021/10/26 06:55:01;;;;;;;4.22;3.67;;;7.70;99.90;;;;;;7313383;19;2004403;-79
2021/10/26 06:57:50;;;;;;;3.65;2.70;;;7.70;99.90;;;;;;7417549;19;20356;-79
2021/10/26 07:00:35;;;;;;;3.33;2.70;;;7.80;99.90;;;;;;7413371;19;20320;-79
2021/10/26 07:03:22;;;;;;;3.72;3.28;;;7.60;99.90;;;;;;7315812;19;2004248;-80
2021/10/26 07:06:08;;;;;;;4.75;3.10;;;7.90;99.90;;;;;;7309893;19;2004765;-79
2021/10/26 07:08:41;;;;;;;3.22;2.97;;;8.00;99.90;;;;;;7420657;19;20339;-79
2021/10/26 07:11:38;;;;;;;3.60;3.30;;;8.00;99.90;;;;;;7315767;19;2008012;-79
2021/10/26 07:14:11;;;;;;;4.03;3.60;;;7.90;99.90;;;;;;7416542;19;20329;-79
2021/10/26 07:16:41;;;;;;;3.47;3.13;;;8.00;99.90;;;;;;7412605;19;20349;-80
2021/10/26 07:19:16;;;;;;;4.15;3.08;;;8.10;99.90;;;;;;7397614;19;20337;-79
2021/10/26 07:22:04;;;;;;;5.10;3.95;;;8.10;99.90;;;;;;7412137;19;20354;-79
2021/10/26 07:24:55;;;;;;;3.58;3.25;;;8.20;99.90;;;;;;7316999;19;2004284;-79
2021/10/26 07:27:24;;;;;;;4.25;3.70;;;8.30;99.90;;;;;;7315630;19;2008233;-80
2021/10/26 07:29:53;;;;;;;5.75;3.45;;;8.40;99.90;;;;;;7420867;19;20333;-79
2021/10/26 07:32:20;;;;;;;4.13;3.53;;;8.40;99.90;;;;;;7417275;19;20325;-79
2021/10/26 07:34:48;;;;;;;3.50;3.15;;;8.50;99.90;;;;;;7414073;19;20356;-79
2021/10/26 07:37:15;;;;;;;3.75;3.30;;;8.60;99.90;;;;;;7400759;19;20409;-79
2021/10/26 07:39:56;;;;;;;5.00;3.03;;;8.70;99.90;;;;;;7403610;19;20317;-79
2021/10/26 07:42:23;;;;;;;4.13;3.30;;;8.80;99.90;;;;;;7382769;19;20352;-79
2021/10/26 07:45:12;;;;;;;6.88;3.63;;;8.90;99.90;;;;;;7425102;19;20384;-79
2021/10/26 07:47:39;;;;;;;3.88;3.50;;;9.00;99.90;;;;;;7403907;19;20329;-79
2021/10/26 07:50:09;;;;;;;3.60;3.25;;;9.10;99.90;;;;;;7427209;19;20396;-79
2021/10/26 07:52:37;;;;;;;3.97;3.58;;;9.20;99.90;;;;;;7424481;19;20304;-79
2021/10/26 07:55:19;;;;;;;3.92;3.53;;;9.20;99.90;;;;;;7323920;19;2004169;-81
2021/10/26 07:57:49;;;;;;;3.97;3.53;;;9.30;99.90;;;;;;7423834;19;20331;-79
2021/10/26 08:00:17;;;;;;;3.70;3.40;;;9.40;99.90;;;;;;7421476;19;20376;-80
2021/10/26 08:02:43;;;;;;;3.60;3.30;;;9.50;99.90;;;;;;7393140;19;20371;-86
2021/10/26 08:05:33;;;;;;;4.65;3.65;;;9.60;99.90;;;;;;7399663;19;20328;-81
2021/10/26 08:08:00;;;;;;;4.38;3.97;;;9.70;99.90;;;;;;7424815;19;20338;-86
2021/10/26 08:10:28;;;;;;;3.70;3.40;;;9.70;99.90;;;;;;7415973;19;20323;-82
2021/10/26 08:12:55;;;;;;;3.72;3.33;;;9.80;99.90;;;;;;7422170;19;20364;-87
2021/10/26 08:15:23;;;;;;;4.47;3.70;;;9.80;99.90;;;;;;7398888;19;20648;-80
2021/10/26 08:17:49;;;;;;;4.53;3.78;;;9.90;99.90;;;;;;7422693;19;20362;-83
2021/10/26 08:20:17;;;;;;;3.80;3.50;;;10.00;99.90;;;;;;7416763;19;20343;-84
2021/10/26 08:22:44;;;;;;;4.10;3.70;;;10.00;99.90;;;;;;7412270;19;20349;-88
2021/10/26 08:25:22;;;;;;;6.97;4.03;;;10.00;99.90;;;;;;7421340;19;20297;-83
2021/10/26 08:27:56;;;;;;;3.55;3.25;;;10.00;99.90;;;;;;7319177;19;2008864;-81
2021/10/26 08:33:03;;;;;;;4.20;3.78;;;10.20;99.90;;;;;;7420028;19;20365;-81
2021/10/26 08:35:31;;;;;;;4.50;3.92;;;10.20;99.90;;;;;;7419362;19;20337;-86
2021/10/26 08:38:00;;;;;;;4.88;3.90;;;10.20;99.90;;;;;;7415079;19;20332;-83
2021/10/26 08:40:28;;;;;;;4.77;3.80;;;10.20;99.90;;;;;;7421175;19;20757;-83
2021/10/26 08:42:57;;;;;;;4.75;4.03;;;10.20;99.90;;;;;;7395506;19;20857;-84
2021/10/26 08:45:26;;;;;;;4.57;3.58;;;10.10;99.90;;;;;;7397174;19;20432;-80
2021/10/26 08:47:54;;;;;;;3.03;2.78;;;9.90;99.90;;;;;;7421453;19;20373;-84
2021/10/26 08:50:38;;;;;;;3.60;3.30;;;10.10;99.90;;;;;;7414169;19;20402;-82
2021/10/26 08:53:06;;;;;;;3.20;2.90;;;10.10;99.90;;;;;;7420203;19;20317;-85
2021/10/26 08:56:07;;;;;;;5.30;4.32;;;10.20;99.90;;;;;;7416939;19;20309;-84
2021/10/26 08:58:56;;;;;;;5.35;3.72;;;10.30;99.90;;;;;;7317248;19;2004442;-86
2021/10/26 09:01:31;;;;;;;2.90;2.70;;;10.20;99.90;;;;;;7399688;19;20317;-84
2021/10/26 09:04:11;;;;;;;3.72;3.42;;;10.30;99.90;;;;;;7419698;19;20395;-88
2021/10/26 09:06:59;;;;;;;3.92;3.55;;;10.30;99.90;;;;;;7316814;19;2004297;-88
2021/10/26 09:18:29;;;;;;;3.40;3.13;;;10.30;99.90;;;;;;7226344;19;2004431;-79
2021/10/26 09:21:25;;;;;;;3.60;3.22;;;10.40;99.90;;;;;;7249303;19;2004474;-80
2021/10/26 09:23:55;;;;;;;4.32;3.33;;;10.50;99.90;;;;;;7363136;19;21321;-79
2021/10/26 09:26:25;;;;;;;3.40;3.10;;;10.50;99.90;;;;;;7361477;19;20881;-82
2021/10/26 09:28:58;;;;;;;3.53;3.20;;;10.50;99.90;;;;;;7352374;19;20327;-80
2021/10/26 09:31:27;;;;;;;5.03;3.55;;;10.60;99.90;;;;;;7360514;19;20376;-81
2021/10/26 09:33:58;;;;;;;4.65;3.85;;;10.60;99.90;;;;;;7370849;19;20349;-80
2021/10/26 09:36:33;;;;;;;3.88;3.25;;;10.50;99.90;;;;;;7356458;19;21011;-80
2021/10/26 09:39:04;;;;;;;6.03;3.25;;;10.50;99.90;;;;;;7360253;19;20352;-80
2021/10/26 09:42:07;;;;;;;3.53;3.23;;;10.60;99.90;;;;;;7356425;19;20346;-80
2021/10/26 09:44:48;;;;;;;3.93;3.20;;;10.70;99.90;;;;;;7258581;19;2004325;-80
2021/10/26 09:47:19;;;;;;;3.60;3.20;;;10.70;99.90;;;;;;7357361;19;20891;-80
2021/10/26 09:49:56;;;;;;;3.90;3.40;;;10.70;99.90;;;;;;7372582;19;20417;-79
2021/10/26 09:52:45;;;;;;;5.43;4.30;;;10.70;99.90;;;;;;7256725;19;2005332;-81
2021/10/26 09:55:23;;;;;;;3.87;3.43;;;10.80;99.90;;;;;;7260924;19;2004530;-80
2021/10/26 09:58:13;;;;;;;9.30;3.70;;;10.80;99.90;;;;;;7337977;19;20440;-80
2021/10/26 10:01:12;;;;;;;3.80;3.33;;;10.80;99.90;;;;;;7222829;19;2004642;-82
2021/10/26 10:03:46;;;;;;;3.33;3.03;;;10.90;99.90;;;;;;7193802;19;2004156;-84
2021/10/26 10:06:48;;;;;;;3.97;3.60;;;11.00;99.90;;;;;;7312853;19;20346;-80
2021/10/26 10:09:26;;;;;;;3.65;3.20;;;11.00;99.90;;;;;;7221297;19;2004333;-80
2021/10/26 10:12:04;;;;;;;3.05;2.78;;;11.00;99.90;;;;;;7281914;19;20324;-82
2021/10/26 10:14:44;;;;;;;3.05;2.75;;;11.20;99.90;;;;;;7349814;19;20332;-80
2021/10/26 10:17:14;;;;;;;4.47;3.57;;;11.20;99.90;;;;;;7353639;19;20364;-82
2021/10/26 10:26:06;;;;;;;4.75;4.18;;;11.50;99.90;;;;;;7402626;19;20383;-89
2021/10/26 10:28:49;;;;;;;7.90;6.10;;;11.70;99.90;;;;;;7378314;19;20341;-85
2021/10/26 10:31:19;;;;;;;4.82;4.35;;;11.80;99.90;;;;;;7260058;19;2004397;-86
2021/10/26 10:33:48;;;;;;;7.17;5.00;;;11.80;99.90;;;;;;7267593;19;2004278;-81
2021/10/26 10:36:18;;;;;;;4.32;3.90;;;12.00;99.90;;;;;;7367188;19;20305;-85
2021/10/26 10:38:45;;;;;;;7.47;4.30;;;12.10;99.90;;;;;;7368612;19;20329;-84
2021/10/26 10:41:24;;;;;;;4.93;4.23;;;12.10;99.90;;;;;;7350000;19;20333;-82
2021/10/26 10:44:04;;;;;;;4.25;3.85;;;12.10;99.90;;;;;;7241145;19;2004441;-87
2021/10/26 10:46:37;;;;;;;5.38;4.25;;;12.10;99.90;;;;;;7348501;19;20297;-84
2021/10/26 10:49:19;;;;;;;5.07;4.57;;;12.20;99.90;;;;;;7380629;19;20357;-83
2021/10/26 10:52:10;;;;;;;4.50;4.05;;;12.20;99.90;;;;;;7236786;19;2024361;-86
2021/10/26 10:54:38;;;;;;;5.27;4.70;;;12.30;99.90;;;;;;7371000;19;20312;-83
2021/10/26 10:57:21;;;;;;;4.85;4.35;;;12.30;99.90;;;;;;7370302;19;20332;-85
2021/10/26 10:59:54;;;;;;;4.78;3.95;;;12.30;99.90;;;;;;7373685;19;20316;-86
2021/10/26 11:02:26;;;;;;;6.50;4.35;;;12.40;99.90;;;;;;7351250;19;20371;-81
2021/10/26 11:04:54;;;;;;;4.50;3.85;;;12.40;99.90;;;;;;7366261;19;20400;-88
2021/10/26 11:07:42;;;;;;;7.43;5.53;;;12.50;99.90;;;;;;7380318;19;20355;-88
2021/10/26 11:10:15;;;;;;;6.55;5.13;;;12.50;99.90;;;;;;7260640;19;2004313;-85
2021/10/26 11:12:45;;;;;;;6.57;4.72;;;12.50;99.90;;;;;;7330395;19;21016;-83
2021/10/26 11:15:46;;;;;;;6.00;4.90;;;12.60;99.90;;;;;;7354067;19;20449;-84
2021/10/26 11:18:48;;;;;;;4.10;3.58;;;12.60;99.90;;;;;;7262530;19;2004392;-83
2021/10/26 11:21:24;;;;;;;4.38;3.97;;;12.70;99.90;;;;;;7238824;19;2004452;-82
2021/10/26 11:23:58;;;;;;;5.55;4.95;;;12.80;99.90;;;;;;7369783;19;20308;-83
2021/10/26 11:26:39;;;;;;;5.38;4.60;;;12.90;99.90;;;;;;7341850;19;20353;-86
2021/10/26 11:29:08;;;;;;;5.68;5.10;;;13.00;99.90;;;;;;7373767;19;20305;-83
2021/10/26 11:31:46;;;;;;;5.32;4.53;;;13.20;99.90;;;;;;7366013;19;20312;-82
2021/10/26 11:34:34;;;;;;;5.10;4.55;;;13.20;99.90;;;;;;7252268;19;2007298;-85
2021/10/26 11:37:08;;;;;;;4.93;3.60;;;13.20;99.90;;;;;;7226847;19;2005454;-87
2021/10/26 11:39:42;;;;;;;4.70;4.30;;;13.20;99.90;;;;;;7324843;19;20323;-85
2021/10/26 11:42:12;;;;;;;4.78;4.30;;;13.30;99.90;;;;;;7358009;19;20340;-88
2021/10/26 11:44:40;;;;;;;5.00;4.60;;;13.40;99.90;;;;;;7340388;19;20692;-82
2021/10/26 11:47:09;;;;;;;4.97;4.47;;;13.30;99.90;;;;;;7367965;19;20320;-86
2021/10/26 11:50:02;;;;;;;5.10;3.80;;;13.40;99.90;;;;;;7350177;19;20361;-84
2021/10/26 11:52:44;;;;;;;4.60;4.20;;;13.50;99.90;;;;;;7279433;19;2004251;-86
2021/10/26 11:55:26;;;;;;;4.78;4.18;;;13.40;99.90;;;;;;7277869;19;2004570;-87
2021/10/26 11:57:53;;;;;;;4.47;4.07;;;13.40;99.90;;;;;;7231508;19;2005979;-84
2021/10/26 12:00:25;;;;;;;5.05;4.55;;;13.30;99.90;;;;;;7236680;19;2004401;-82
2021/10/26 12:02:53;;;;;;;4.37;3.97;;;13.30;99.90;;;;;;7367000;19;20327;-87
2021/10/26 12:05:22;;;;;;;4.70;4.07;;;13.40;99.90;;;;;;7360081;19;20730;-83
2021/10/26 12:07:53;;;;;;;4.57;4.18;;;13.40;99.90;;;;;;7361661;19;20308;-84
2021/10/26 12:10:24;;;;;;;5.47;4.28;;;13.40;99.90;;;;;;7348751;19;20343;-85
2021/10/26 12:12:52;;;;;;;6.13;4.50;;;13.50;99.90;;;;;;7346290;19;20346;-83
2021/10/26 12:15:21;;;;;;;5.93;4.13;;;13.50;99.90;;;;;;7332249;19;20309;-89
2021/10/26 12:17:49;;;;;;;4.18;3.78;;;13.50;99.90;;;;;;7373943;19;20323;-86
2021/10/26 12:20:20;;;;;;;5.97;4.05;;;13.60;99.90;;;;;;7366517;19;21393;-88
2021/10/26 12:23:02;;;;;;;4.67;4.10;;;13.60;99.90;;;;;;7280167;19;2004421;-87
2021/10/26 12:25:33;;;;;;;5.20;4.00;;;13.60;99.90;;;;;;7390756;19;20305;-87
2021/10/26 12:28:05;;;;;;;4.07;3.67;;;13.60;99.90;;;;;;7343123;19;20359;-89
2021/10/26 12:30:51;;;;;;;4.47;4.07;;;13.70;99.90;;;;;;7374960;19;20369;-87
2021/10/26 12:33:28;;;;;;;5.95;4.03;;;13.70;99.90;;;;;;7362148;19;20810;-83
2021/10/26 12:36:08;;;;;;;6.20;5.17;;;13.40;99.90;;;;;;7336207;19;20364;-83
2021/10/26 12:38:56;;;;;;;4.63;4.03;;;13.50;99.90;;;;;;7388252;19;20319;-82
2021/10/26 12:41:28;;;;;;;5.60;4.22;;;13.50;99.90;;;;;;7277414;19;2004289;-85
2021/10/26 12:44:04;;;;;;;3.92;3.55;;;13.50;99.90;;;;;;7280024;19;2004263;-85
2021/10/26 12:46:31;;;;;;;3.90;3.20;;;13.40;99.90;;;;;;7376404;19;20322;-89
2021/10/26 12:49:21;;;;;;;4.97;4.25;;;13.60;99.90;;;;;;7360037;19;20317;-84
2021/10/26 12:51:52;;;;;;;4.43;3.85;;;13.70;99.90;;;;;;7382817;19;20292;-84
2021/10/26 12:54:22;;;;;;;5.18;3.70;;;13.80;99.90;;;;;;7384716;19;20320;-86
2021/10/26 12:56:56;;;;;;;4.10;3.70;;;13.80;99.90;;;;;;7387479;19;20320;-89
2021/10/26 12:59:25;;;;;;;3.80;3.50;;;13.90;99.90;;;;;;7378769;19;20703;-87
2021/10/26 13:02:03;;;;;;;4.28;3.60;;;13.90;99.90;;;;;;7374929;19;20344;-83
2021/10/26 13:04:33;;;;;;;3.75;3.42;;;13.90;99.90;;;;;;7273448;19;2004528;-84
2021/10/26 13:07:07;;;;;;;4.20;3.58;;;14.00;99.90;;;;;;7372137;19;22737;-87
2021/10/26 13:09:50;;;;;;;4.07;3.67;;;14.00;99.90;;;;;;7383581;19;20329;-82
2021/10/26 13:12:30;;;;;;;4.53;3.55;;;14.00;99.90;;;;;;7374307;19;20328;-83
2021/10/26 13:15:20;;;;;;;3.88;3.53;;;14.00;99.90;;;;;;7276776;19;2004413;-87
2021/10/26 13:17:49;;;;;;;4.60;3.75;;;14.20;99.90;;;;;;7369197;19;20313;-82
2021/10/26 13:20:30;;;;;;;5.22;3.88;;;14.00;99.90;;;;;;7370256;19;20420;-84
2021/10/26 13:23:09;;;;;;;3.27;2.97;;;14.10;99.90;;;;;;7272107;19;2004729;-85
2021/10/26 13:25:43;;;;;;;3.40;3.10;;;14.20;99.90;;;;;;7383943;19;20308;-88
2021/10/26 13:28:11;;;;;;;3.90;3.50;;;14.30;99.90;;;;;;7379696;19;20332;-87
2021/10/26 13:30:48;;;;;;;3.05;2.75;;;14.30;99.90;;;;;;7379287;19;20313;-90
2021/10/26 13:33:17;;;;;;;4.25;3.15;;;14.40;99.90;;;;;;7383018;19;20359;-84
2021/10/26 13:35:46;;;;;;;3.55;3.25;;;14.40;99.90;;;;;;7385754;19;20392;-83
2021/10/26 13:38:15;;;;;;;4.00;3.17;;;14.40;99.90;;;;;;7383913;19;20313;-87
2021/10/26 13:40:43;;;;;;;5.28;3.58;;;14.40;99.90;;;;;;7374876;19;20308;-87